createdAt,value
2019-05-20T00:00:27.586Z,95.69
2019-05-20T00:01:27.607Z,96.00
2019-05-20T00:02:28.531Z,96.30
2019-05-20T00:03:27.532Z,96.10
2019-05-20T00:04:27.572Z,96.00
2019-05-20T00:05:27.609Z,95.90
2019-05-20T00:06:27.514Z,95.49
2019-05-20T00:07:27.490Z,95.79
2019-05-20T00:08:27.472Z,95.79
2019-05-20T00:09:27.465Z,96.30
2019-05-20T00:10:27.489Z,95.90
2019-05-20T00:11:27.459Z,96.00
2019-05-20T00:12:27.451Z,96.00
2019-05-20T00:13:27.415Z,95.90
2019-05-20T00:14:27.406Z,95.69
2019-05-20T00:15:27.428Z,96.10
2019-05-20T00:16:27.395Z,96.20
2019-05-20T00:17:27.427Z,96.30
2019-05-20T00:18:27.398Z,96.10
2019-05-20T00:19:27.347Z,95.90
2019-05-20T00:20:27.344Z,96.35
2019-05-20T00:21:27.351Z,96.25
2019-05-20T00:22:27.326Z,96.00
2019-05-20T00:23:27.324Z,96.25
2019-05-20T00:24:27.322Z,96.45
2019-05-20T00:25:27.281Z,97.06
2019-05-20T00:26:27.271Z,96.76
2019-05-20T00:27:27.275Z,96.15
2019-05-20T00:28:27.267Z,97.06
2019-05-20T00:29:27.264Z,97.27
2019-05-20T00:30:27.229Z,97.16
2019-05-20T00:31:27.267Z,96.45
2019-05-20T00:32:40.169Z,96.86
2019-05-20T00:33:27.206Z,96.76
2019-05-20T00:34:35.343Z,96.76
2019-05-20T00:35:28.163Z,96.45
2019-05-20T00:36:27.152Z,96.45
2019-05-20T00:37:27.170Z,96.15
2019-05-20T00:38:27.130Z,96.25
2019-05-20T00:39:27.134Z,96.15
2019-05-20T00:40:27.135Z,95.74
2019-05-20T00:41:27.126Z,95.74
2019-05-20T00:42:27.137Z,95.79
2019-05-20T00:43:27.103Z,95.33
2019-05-20T00:44:27.075Z,95.39
2019-05-20T00:45:27.081Z,95.74
2019-05-20T00:46:27.076Z,95.69
2019-05-20T00:47:27.038Z,95.74
2019-05-20T00:48:27.030Z,95.84
2019-05-20T00:49:27.006Z,95.74
2019-05-20T00:50:27.009Z,95.64
2019-05-20T00:51:27.013Z,95.74
2019-05-20T00:52:27.014Z,95.43
2019-05-20T00:53:26.997Z,96.04
2019-05-20T00:54:26.964Z,96.04
2019-05-20T00:55:26.935Z,96.04
2019-05-20T00:56:26.938Z,96.04
2019-05-20T00:57:26.938Z,96.15
2019-05-20T00:58:26.905Z,96.04
2019-05-20T00:59:26.901Z,96.00
2019-05-20T01:00:26.882Z,96.15
2019-05-20T01:01:26.872Z,95.84
2019-05-20T01:02:26.864Z,96.15
2019-05-20T01:03:26.873Z,95.94
2019-05-20T01:04:26.835Z,94.82
2019-05-20T01:05:26.830Z,94.72
2019-05-20T01:06:26.814Z,95.13
2019-05-20T01:07:26.801Z,95.13
2019-05-20T01:08:26.809Z,94.92
2019-05-20T01:09:26.796Z,95.03
2019-05-20T01:10:26.803Z,95.03
2019-05-20T01:11:26.774Z,94.92
2019-05-20T01:12:26.745Z,95.43
2019-05-20T01:13:26.766Z,95.23
2019-05-20T01:14:26.774Z,95.08
2019-05-20T01:15:26.744Z,94.82
2019-05-20T01:16:26.707Z,94.42
2019-05-20T01:17:26.689Z,94.72
2019-05-20T01:18:26.695Z,94.11
2019-05-20T01:19:26.690Z,93.80
2019-05-20T01:20:26.672Z,94.82
2019-05-20T01:21:26.643Z,94.42
2019-05-20T01:22:26.628Z,94.82
2019-05-20T01:23:26.625Z,94.11
2019-05-20T01:24:26.634Z,94.42
2019-05-20T01:25:26.606Z,94.31
2019-05-20T01:26:26.620Z,95.13
2019-05-20T01:27:26.607Z,94.92
2019-05-20T01:28:27.780Z,94.62
2019-05-20T01:29:26.557Z,94.72
2019-05-20T01:30:26.564Z,95.03
2019-05-20T01:31:26.559Z,94.92
2019-05-20T01:32:26.549Z,94.92
2019-05-20T01:33:26.517Z,95.03
2019-05-20T01:34:26.506Z,95.03
2019-05-20T01:35:26.490Z,95.13
2019-05-20T01:36:26.494Z,94.82
2019-05-20T01:37:26.495Z,95.23
2019-05-20T01:38:26.486Z,95.03
2019-05-20T01:39:26.448Z,95.33
2019-05-20T01:40:26.427Z,95.48
2019-05-20T01:41:26.423Z,95.43
2019-05-20T01:42:26.436Z,95.74
2019-05-20T01:43:26.418Z,95.28
2019-05-20T01:44:26.404Z,95.03
2019-05-20T01:45:26.369Z,95.48
2019-05-20T01:46:26.361Z,95.53
2019-05-20T01:47:26.354Z,95.33
2019-05-20T01:48:26.356Z,95.64
2019-05-20T01:49:26.360Z,95.74
2019-05-20T01:50:26.318Z,95.33
2019-05-20T01:51:26.301Z,95.74
2019-05-20T01:52:26.313Z,95.64
2019-05-20T01:53:26.342Z,95.84
2019-05-20T01:54:26.313Z,95.84
2019-05-20T01:55:26.275Z,96.04
2019-05-20T01:56:26.384Z,95.74
2019-05-20T01:57:26.240Z,95.33
2019-05-20T01:58:26.223Z,95.23
2019-05-20T01:59:26.233Z,95.53
2019-05-20T02:00:26.217Z,95.58
2019-05-20T02:01:26.233Z,95.74
2019-05-20T02:02:26.219Z,95.94
2019-05-20T02:03:31.570Z,95.74
2019-05-20T02:04:27.168Z,95.74
2019-05-20T02:05:26.159Z,95.89
2019-05-20T02:06:26.153Z,95.78
2019-05-20T02:07:26.128Z,95.23
2019-05-20T02:08:26.120Z,95.28
2019-05-20T02:09:26.107Z,95.74
2019-05-20T02:10:26.134Z,96.04
2019-05-20T02:11:26.097Z,95.89
2019-05-20T02:12:26.089Z,95.64
2019-05-20T02:13:26.057Z,96.35
2019-05-20T02:14:26.054Z,95.33
2019-05-20T02:15:26.034Z,95.53
2019-05-20T02:16:26.057Z,95.33
2019-05-20T02:17:26.024Z,95.48
2019-05-20T02:18:26.024Z,95.43
2019-05-20T02:19:26.003Z,95.74
2019-05-20T02:20:25.980Z,95.68
2019-05-20T02:21:25.972Z,95.74
2019-05-20T02:22:25.981Z,95.43
2019-05-20T02:23:25.960Z,95.94
2019-05-20T02:24:25.962Z,95.33
2019-05-20T02:25:25.921Z,95.68
2019-05-20T02:26:25.939Z,96.25
2019-05-20T02:27:25.903Z,97.06
2019-05-20T02:28:25.901Z,97.00
2019-05-20T02:29:25.892Z,97.00
2019-05-20T02:30:25.861Z,96.70
2019-05-20T02:31:25.855Z,96.50
2019-05-20T02:32:25.845Z,97.00
2019-05-20T02:33:25.832Z,96.96
2019-05-20T02:34:25.840Z,96.60
2019-05-20T02:35:25.826Z,96.91
2019-05-20T02:36:25.800Z,97.21
2019-05-20T02:37:25.788Z,97.21
2019-05-20T02:38:25.774Z,97.31
2019-05-20T02:39:26.834Z,97.11
2019-05-20T02:40:25.764Z,97.11
2019-05-20T02:41:25.768Z,97.11
2019-05-20T02:42:25.781Z,97.11
2019-05-20T02:43:25.717Z,97.21
2019-05-20T02:44:25.713Z,96.64
2019-05-20T02:45:25.705Z,96.60
2019-05-20T02:46:25.701Z,97.00
2019-05-20T02:47:25.715Z,97.11
2019-05-20T02:48:25.666Z,96.70
2019-05-20T02:49:25.646Z,96.80
2019-05-20T02:50:25.646Z,96.80
2019-05-20T02:51:25.629Z,97.11
2019-05-20T02:52:25.630Z,96.84
2019-05-20T02:53:25.632Z,96.84
2019-05-20T02:54:25.600Z,96.64
2019-05-20T02:55:25.577Z,96.34
2019-05-20T02:56:25.571Z,96.64
2019-05-20T02:57:25.566Z,96.95
2019-05-20T02:58:25.615Z,97.05
2019-05-20T02:59:25.553Z,97.16
2019-05-20T03:00:25.531Z,96.75
2019-05-20T03:01:25.513Z,96.95
2019-05-20T03:02:25.526Z,97.05
2019-05-20T03:03:25.505Z,96.75
2019-05-20T03:04:25.499Z,96.54
2019-05-20T03:05:25.463Z,96.84
2019-05-20T03:06:25.454Z,96.64
2019-05-20T03:07:25.443Z,96.95
2019-05-20T03:08:25.452Z,97.56
2019-05-20T03:09:25.505Z,96.64
2019-05-20T03:10:25.448Z,97.16
2019-05-20T03:11:25.393Z,97.16
2019-05-20T03:12:25.403Z,96.64
2019-05-20T03:13:25.373Z,97.25
2019-05-20T03:14:25.395Z,97.25
2019-05-20T03:15:25.386Z,96.84
2019-05-20T03:16:25.387Z,97.25
2019-05-20T03:17:25.333Z,96.95
2019-05-20T03:18:25.317Z,97.16
2019-05-20T03:19:25.394Z,96.44
2019-05-20T03:20:25.329Z,95.87
2019-05-20T03:21:25.307Z,96.03
2019-05-20T03:22:25.276Z,96.08
2019-05-20T03:23:25.264Z,95.77
2019-05-20T03:24:25.243Z,96.28
2019-05-20T03:25:25.282Z,96.34
2019-05-20T03:26:25.236Z,95.87
2019-05-20T03:27:25.214Z,95.26
2019-05-20T03:28:25.206Z,95.47
2019-05-20T03:29:25.197Z,95.16
2019-05-20T03:30:25.214Z,95.77
2019-05-20T03:31:25.184Z,95.87
2019-05-20T03:32:25.176Z,94.85
2019-05-20T03:33:25.182Z,95.57
2019-05-20T03:34:45.140Z,95.57
2019-05-20T03:35:26.182Z,95.57
2019-05-20T03:36:25.129Z,95.77
2019-05-20T03:37:25.107Z,95.87
2019-05-20T03:38:25.114Z,95.87
2019-05-20T03:39:25.085Z,96.59
2019-05-20T03:40:25.072Z,95.67
2019-05-20T03:41:25.064Z,96.59
2019-05-20T03:42:25.057Z,96.59
2019-05-20T03:43:25.056Z,96.28
2019-05-20T03:44:25.066Z,96.59
2019-05-20T03:45:25.011Z,96.48
2019-05-20T03:46:25.022Z,95.67
2019-05-20T03:47:24.985Z,95.87
2019-05-20T03:48:24.991Z,95.87
2019-05-20T03:49:24.999Z,95.77
2019-05-20T03:50:24.950Z,95.87
2019-05-20T03:51:25.037Z,95.87
2019-05-20T03:52:24.925Z,96.12
2019-05-20T03:53:24.920Z,96.48
2019-05-20T03:54:24.936Z,95.67
2019-05-20T03:55:24.913Z,96.38
2019-05-20T03:56:24.882Z,96.28
2019-05-20T03:57:24.915Z,96.28
2019-05-20T03:58:24.864Z,95.97
2019-05-20T03:59:24.855Z,96.38
2019-05-20T04:00:24.897Z,96.28
2019-05-20T04:01:24.852Z,96.28
2019-05-20T04:02:24.852Z,97.20
2019-05-20T04:03:24.832Z,96.38
2019-05-20T04:04:25.327Z,96.08
2019-05-20T04:05:24.806Z,96.18
2019-05-20T04:06:24.817Z,95.97
2019-05-20T04:07:24.798Z,96.69
2019-05-20T04:08:24.752Z,96.89
2019-05-20T04:09:24.745Z,96.69
2019-05-20T04:10:24.724Z,97.20
2019-05-20T04:11:24.771Z,97.20
2019-05-20T04:12:24.724Z,96.63
2019-05-20T04:13:24.715Z,96.59
2019-05-20T04:14:24.701Z,96.69
2019-05-20T04:15:24.705Z,97.30
2019-05-20T04:16:24.668Z,97.30
2019-05-20T04:17:24.655Z,96.38
2019-05-20T04:18:24.658Z,96.38
2019-05-20T04:19:24.630Z,97.30
2019-05-20T04:20:24.622Z,96.69
2019-05-20T04:21:24.614Z,96.38
2019-05-20T04:22:24.602Z,96.69
2019-05-20T04:23:24.595Z,96.69
2019-05-20T04:24:24.645Z,96.69
2019-05-20T04:25:24.553Z,97.20
2019-05-20T04:26:24.539Z,97.20
2019-05-20T04:27:24.561Z,97.09
2019-05-20T04:28:24.540Z,96.69
2019-05-20T04:29:24.550Z,97.40
2019-05-20T04:30:24.522Z,96.69
2019-05-20T04:31:24.497Z,97.09
2019-05-20T04:32:24.473Z,97.20
2019-05-20T04:33:25.183Z,97.30
2019-05-20T04:34:24.489Z,97.09
2019-05-20T04:35:24.493Z,97.00
2019-05-20T04:36:24.466Z,97.09
2019-05-20T04:37:24.420Z,96.84
2019-05-20T04:38:24.408Z,96.84
2019-05-20T04:39:24.452Z,97.20
2019-05-20T04:40:24.393Z,97.16
2019-05-20T04:41:24.393Z,97.20
2019-05-20T04:42:24.405Z,96.64
2019-05-20T04:43:24.372Z,97.25
2019-05-20T04:44:24.358Z,96.89
2019-05-20T04:45:24.359Z,97.00
2019-05-20T04:46:24.336Z,97.36
2019-05-20T04:47:24.342Z,97.09
2019-05-20T04:48:24.340Z,97.36
2019-05-20T04:49:24.281Z,97.05
2019-05-20T04:50:24.295Z,97.25
2019-05-20T04:51:24.332Z,96.03
2019-05-20T04:52:24.275Z,96.44
2019-05-20T04:53:24.266Z,96.84
2019-05-20T04:54:24.270Z,97.36
2019-05-20T04:55:24.227Z,96.64
2019-05-20T04:56:24.202Z,97.25
2019-05-20T04:57:24.217Z,96.75
2019-05-20T04:58:24.198Z,96.84
2019-05-20T04:59:24.169Z,96.95
2019-05-20T05:00:24.180Z,97.05
2019-05-20T05:01:24.154Z,97.16
2019-05-20T05:02:24.141Z,96.64
2019-05-20T05:03:24.136Z,96.75
2019-05-20T05:04:24.144Z,96.34
2019-05-20T05:05:36.868Z,96.64
2019-05-20T05:06:24.113Z,96.70
2019-05-20T05:07:24.089Z,96.60
2019-05-20T05:08:24.081Z,97.31
2019-05-20T05:09:24.070Z,96.19
2019-05-20T05:10:24.080Z,96.30
2019-05-20T05:11:24.074Z,96.09
2019-05-20T05:12:24.033Z,95.37
2019-05-20T05:13:24.017Z,96.30
2019-05-20T05:14:24.011Z,96.50
2019-05-20T05:15:24.002Z,95.74
2019-05-20T05:16:24.020Z,96.35
2019-05-20T05:17:24.031Z,95.48
2019-05-20T05:18:23.961Z,95.48
2019-05-20T05:19:23.946Z,96.04
2019-05-20T05:20:23.961Z,96.25
2019-05-20T05:21:23.944Z,95.64
2019-05-20T05:22:23.945Z,95.74
2019-05-20T05:23:23.908Z,95.43
2019-05-20T05:24:23.906Z,95.43
2019-05-20T05:25:23.898Z,95.23
2019-05-20T05:26:23.881Z,95.43
2019-05-20T05:27:23.880Z,95.18
2019-05-20T05:28:23.841Z,94.42
2019-05-20T05:29:23.830Z,94.92
2019-05-20T05:30:23.819Z,94.52
2019-05-20T05:31:23.827Z,94.88
2019-05-20T05:32:23.840Z,94.78
2019-05-20T05:33:23.817Z,94.27
2019-05-20T05:34:23.778Z,94.88
2019-05-20T05:35:23.761Z,94.78
2019-05-20T05:36:23.753Z,93.76
2019-05-20T05:37:23.782Z,93.96
2019-05-20T05:38:23.770Z,94.07
2019-05-20T05:39:23.743Z,93.96
2019-05-20T05:40:23.714Z,93.76
2019-05-20T05:41:23.732Z,93.62
2019-05-20T05:42:23.694Z,93.51
2019-05-20T05:43:23.693Z,93.62
2019-05-20T05:44:23.696Z,92.80
2019-05-20T05:45:23.649Z,93.01
2019-05-20T05:46:23.654Z,92.70
2019-05-20T05:47:23.634Z,92.29
2019-05-20T05:48:23.641Z,92.80
2019-05-20T05:49:23.622Z,92.60
2019-05-20T05:50:23.612Z,92.60
2019-05-20T05:51:23.585Z,93.01
2019-05-20T05:52:23.571Z,93.21
2019-05-20T05:53:23.606Z,92.90
2019-05-20T05:54:23.590Z,92.90
2019-05-20T05:55:23.551Z,92.19
2019-05-20T05:56:23.546Z,92.29
2019-05-20T05:57:23.513Z,91.88
2019-05-20T05:58:23.510Z,91.88
2019-05-20T05:59:23.489Z,92.29
2019-05-20T06:00:23.513Z,92.29
2019-05-20T06:01:23.486Z,92.90
2019-05-20T06:02:23.454Z,92.19
2019-05-20T06:03:23.537Z,92.09
2019-05-20T06:04:23.439Z,91.99
2019-05-20T06:05:23.429Z,92.09
2019-05-20T06:06:23.418Z,91.88
2019-05-20T06:07:23.421Z,92.29
2019-05-20T06:08:23.460Z,91.99
2019-05-20T06:09:24.185Z,92.40
2019-05-20T06:10:23.368Z,91.94
2019-05-20T06:11:23.370Z,91.07
2019-05-20T06:12:23.391Z,92.14
2019-05-20T06:13:23.359Z,91.64
2019-05-20T06:14:23.335Z,91.94
2019-05-20T06:15:23.316Z,90.92
2019-05-20T06:16:36.125Z,91.33
2019-05-20T06:17:23.302Z,90.83
2019-05-20T06:18:23.312Z,91.33
2019-05-20T06:19:23.308Z,90.52
2019-05-20T06:20:23.255Z,91.33
2019-05-20T06:21:23.252Z,91.03
2019-05-20T06:22:23.239Z,90.92
2019-05-20T06:23:23.276Z,90.11
2019-05-20T06:24:23.223Z,89.91
2019-05-20T06:25:23.249Z,89.66
2019-05-20T06:26:23.290Z,89.70
2019-05-20T06:27:23.207Z,89.61
2019-05-20T06:28:23.175Z,89.40
2019-05-20T06:29:23.186Z,89.15
2019-05-20T06:30:23.161Z,88.95
2019-05-20T06:31:23.237Z,89.70
2019-05-20T06:32:23.119Z,89.20
2019-05-20T06:33:23.128Z,89.36
2019-05-20T06:34:23.113Z,88.75
2019-05-20T06:35:23.161Z,89.15
2019-05-20T06:36:26.861Z,89.26
2019-05-20T06:37:23.074Z,90.33
2019-05-20T06:38:23.049Z,90.44
2019-05-20T06:39:23.036Z,88.91
2019-05-20T06:40:23.062Z,88.50
2019-05-20T06:41:23.048Z,87.49
2019-05-20T06:42:23.024Z,87.79
2019-05-20T06:43:23.035Z,88.30
2019-05-20T06:44:22.980Z,88.40
2019-05-20T06:45:22.969Z,88.30
2019-05-20T06:46:23.005Z,88.60
2019-05-20T06:47:22.964Z,88.20
2019-05-20T06:48:22.933Z,87.89
2019-05-20T06:49:22.940Z,88.10
2019-05-20T06:50:22.909Z,88.26
2019-05-20T06:51:22.952Z,87.14
2019-05-20T06:52:35.289Z,88.06
2019-05-20T06:53:23.878Z,87.34
2019-05-20T06:54:22.861Z,87.55
2019-05-20T06:55:22.876Z,87.45
2019-05-20T06:56:22.848Z,88.36
2019-05-20T06:57:23.997Z,88.01
2019-05-20T06:58:22.830Z,87.45
2019-05-20T06:59:22.840Z,88.82
2019-05-20T07:00:22.802Z,88.26
2019-05-20T07:01:22.795Z,87.61
2019-05-20T07:02:22.777Z,86.80
2019-05-20T07:03:22.792Z,86.29
2019-05-20T07:04:22.781Z,86.59
2019-05-20T07:05:22.764Z,86.69
2019-05-20T07:06:22.782Z,87.81
2019-05-20T07:07:22.740Z,85.88
2019-05-20T07:08:22.732Z,87.30
2019-05-20T07:09:22.737Z,87.51
2019-05-20T07:10:22.800Z,87.81
2019-05-20T07:11:22.728Z,87.61
2019-05-20T07:12:22.708Z,87.40
2019-05-20T07:13:22.665Z,87.10
2019-05-20T07:14:22.654Z,86.49
2019-05-20T07:15:22.667Z,86.49
2019-05-20T07:16:22.642Z,86.59
2019-05-20T07:17:22.613Z,86.39
2019-05-20T07:18:22.616Z,86.39
2019-05-20T07:19:22.586Z,87.40
2019-05-20T07:20:22.640Z,86.59
2019-05-20T07:21:22.591Z,87.30
2019-05-20T07:22:22.579Z,86.29
2019-05-20T07:23:22.550Z,86.08
2019-05-20T07:24:22.545Z,87.00
2019-05-20T07:25:22.591Z,87.20
2019-05-20T07:26:22.543Z,87.71
2019-05-20T07:27:22.514Z,88.21
2019-05-20T07:28:22.481Z,85.78
2019-05-20T07:29:22.470Z,87.40
2019-05-20T07:30:22.464Z,87.51
2019-05-20T07:31:22.468Z,85.78
2019-05-20T07:32:22.464Z,86.39
2019-05-20T07:33:22.445Z,87.10
2019-05-20T07:34:22.444Z,86.69
2019-05-20T07:35:30.487Z,87.61
2019-05-20T07:36:23.416Z,85.88
2019-05-20T07:37:22.430Z,86.29
2019-05-20T07:38:22.378Z,86.90
2019-05-20T07:39:22.374Z,87.10
2019-05-20T07:40:22.390Z,86.59
2019-05-20T07:41:22.346Z,86.49
2019-05-20T07:42:22.328Z,85.68
2019-05-20T07:43:22.325Z,86.49
2019-05-20T07:44:22.311Z,86.39
2019-05-20T07:45:22.306Z,87.20
2019-05-20T07:46:22.280Z,87.20
2019-05-20T07:47:22.259Z,87.51
2019-05-20T07:48:22.274Z,86.49
2019-05-20T07:49:22.270Z,86.59
2019-05-20T07:50:22.241Z,87.20
2019-05-20T07:51:22.243Z,87.61
2019-05-20T07:52:22.208Z,87.81
2019-05-20T07:53:22.192Z,87.14
2019-05-20T07:54:22.190Z,87.40
2019-05-20T07:55:22.191Z,88.01
2019-05-20T07:56:22.195Z,88.16
2019-05-20T07:57:22.160Z,86.63
2019-05-20T07:58:22.147Z,87.20
2019-05-20T07:59:22.127Z,87.71
2019-05-20T08:00:22.183Z,87.51
2019-05-20T08:01:22.143Z,86.39
2019-05-20T08:02:22.115Z,86.49
2019-05-20T08:03:22.092Z,86.49
2019-05-20T08:04:22.110Z,86.49
2019-05-20T08:05:22.069Z,86.29
2019-05-20T08:06:22.078Z,86.59
2019-05-20T08:07:29.754Z,87.61
2019-05-20T08:08:22.042Z,86.49
2019-05-20T08:09:22.084Z,87.10
2019-05-20T08:10:22.007Z,86.08
2019-05-20T08:11:21.996Z,86.29
2019-05-20T08:12:21.994Z,86.29
2019-05-20T08:13:21.988Z,86.74
2019-05-20T08:14:21.966Z,87.75
2019-05-20T08:15:21.950Z,87.45
2019-05-20T08:16:21.931Z,87.45
2019-05-20T08:17:21.937Z,87.24
2019-05-20T08:18:22.749Z,87.65
2019-05-20T08:19:21.972Z,87.75
2019-05-20T08:20:21.887Z,87.95
2019-05-20T08:21:21.870Z,88.36
2019-05-20T08:22:21.888Z,87.75
2019-05-20T08:23:21.864Z,88.06
2019-05-20T08:24:21.856Z,87.95
2019-05-20T08:25:21.870Z,88.76
2019-05-20T08:26:21.840Z,88.36
2019-05-20T08:27:21.808Z,88.97
2019-05-20T08:28:21.797Z,89.17
2019-05-20T08:29:21.790Z,88.56
2019-05-20T08:30:21.785Z,89.28
2019-05-20T08:31:21.832Z,88.46
2019-05-20T08:32:21.806Z,88.06
2019-05-20T08:33:21.746Z,88.26
2019-05-20T08:34:21.740Z,88.26
2019-05-20T08:35:23.702Z,88.46
2019-05-20T08:36:21.723Z,87.95
2019-05-20T08:37:21.701Z,88.32
2019-05-20T08:38:21.682Z,87.85
2019-05-20T08:39:21.672Z,88.06
2019-05-20T08:40:21.677Z,88.46
2019-05-20T08:41:21.733Z,87.92
2019-05-20T08:42:21.658Z,87.75
2019-05-20T08:43:21.629Z,87.75
2019-05-20T08:44:21.664Z,88.46
2019-05-20T08:45:21.634Z,88.42
2019-05-20T08:46:21.597Z,88.42
2019-05-20T08:47:21.615Z,88.12
2019-05-20T08:48:21.569Z,88.52
2019-05-20T08:49:21.571Z,87.92
2019-05-20T08:50:21.571Z,88.06
2019-05-20T08:51:21.537Z,87.71
2019-05-20T08:52:21.547Z,87.71
2019-05-20T08:53:21.561Z,88.21
2019-05-20T08:54:21.518Z,87.92
2019-05-20T08:55:21.500Z,88.01
2019-05-20T08:56:21.509Z,87.51
2019-05-20T08:57:21.491Z,87.85
2019-05-20T08:58:21.522Z,88.01
2019-05-20T08:59:21.458Z,87.95
2019-05-20T09:00:23.599Z,88.32
2019-05-20T09:01:21.430Z,88.42
2019-05-20T09:02:21.421Z,87.67
2019-05-20T09:03:21.412Z,87.06
2019-05-20T09:04:21.407Z,87.16
2019-05-20T09:05:21.376Z,86.35
2019-05-20T09:06:21.377Z,86.86
2019-05-20T09:07:21.363Z,86.86
2019-05-20T09:08:21.349Z,85.94
2019-05-20T09:09:21.393Z,85.94
2019-05-20T09:10:21.355Z,85.70
2019-05-20T09:11:21.420Z,85.84
2019-05-20T09:12:21.303Z,85.30
2019-05-20T09:13:21.279Z,85.30
2019-05-20T09:14:21.284Z,85.30
2019-05-20T09:15:21.278Z,86.10
2019-05-20T09:16:21.304Z,85.09
2019-05-20T09:17:21.750Z,85.66
2019-05-20T09:18:21.228Z,85.90
2019-05-20T09:19:21.212Z,85.96
2019-05-20T09:20:21.265Z,85.60
2019-05-20T09:21:21.199Z,86.00
2019-05-20T09:22:21.179Z,86.71
2019-05-20T09:23:21.174Z,85.86
2019-05-20T09:24:21.149Z,86.77
2019-05-20T09:25:21.155Z,84.95
2019-05-20T09:26:21.233Z,84.85
2019-05-20T09:27:21.195Z,85.46
2019-05-20T09:28:21.125Z,85.19
2019-05-20T09:29:21.135Z,85.15
2019-05-20T09:30:21.100Z,85.30
2019-05-20T09:31:21.090Z,85.09
2019-05-20T09:32:21.100Z,85.30
2019-05-20T09:33:21.081Z,84.89
2019-05-20T09:34:21.048Z,84.55
2019-05-20T09:35:21.042Z,85.80
2019-05-20T09:36:21.026Z,84.95
2019-05-20T09:37:21.031Z,85.09
2019-05-20T09:38:21.557Z,84.85
2019-05-20T09:39:20.984Z,85.80
2019-05-20T09:40:20.975Z,86.16
2019-05-20T09:41:21.028Z,86.27
2019-05-20T09:42:20.963Z,85.96
2019-05-20T09:43:20.973Z,85.66
2019-05-20T09:44:20.963Z,86.16
2019-05-20T09:45:20.943Z,86.27
2019-05-20T09:46:20.903Z,86.57
2019-05-20T09:47:20.888Z,86.16
2019-05-20T09:48:24.870Z,87.48
2019-05-20T09:49:20.882Z,85.36
2019-05-20T09:50:20.887Z,85.66
2019-05-20T09:51:20.875Z,85.86
2019-05-20T09:52:20.835Z,85.86
2019-05-20T09:53:20.861Z,86.98
2019-05-20T09:54:20.837Z,86.16
2019-05-20T09:55:20.821Z,87.04
2019-05-20T09:56:20.823Z,85.86
2019-05-20T09:57:20.779Z,86.73
2019-05-20T09:58:20.773Z,86.37
2019-05-20T09:59:20.760Z,86.22
2019-05-20T10:00:20.766Z,86.27
2019-05-20T10:01:20.743Z,86.13
2019-05-20T10:02:20.862Z,86.77
2019-05-20T10:03:20.724Z,87.34
2019-05-20T10:04:20.703Z,87.54
2019-05-20T10:05:20.694Z,86.13
2019-05-20T10:06:20.700Z,86.13
2019-05-20T10:07:20.719Z,87.24
2019-05-20T10:08:36.278Z,87.45
2019-05-20T10:09:21.642Z,86.22
2019-05-20T10:10:20.631Z,86.13
2019-05-20T10:11:20.636Z,86.22
2019-05-20T10:12:20.644Z,86.63
2019-05-20T10:13:20.627Z,87.34
2019-05-20T10:14:20.596Z,87.74
2019-05-20T10:15:20.583Z,86.94
2019-05-20T10:16:20.573Z,86.53
2019-05-20T10:17:20.569Z,86.02
2019-05-20T10:18:35.983Z,86.53
2019-05-20T10:19:20.551Z,86.94
2019-05-20T10:20:20.528Z,87.04
2019-05-20T10:21:20.503Z,86.90
2019-05-20T10:22:20.523Z,87.30
2019-05-20T10:23:20.525Z,86.49
2019-05-20T10:24:20.485Z,86.08
2019-05-20T10:25:20.494Z,86.15
2019-05-20T10:26:20.447Z,87.20
2019-05-20T10:27:20.448Z,86.85
2019-05-20T10:28:20.435Z,85.54
2019-05-20T10:29:20.428Z,85.54
2019-05-20T10:30:20.417Z,85.54
2019-05-20T10:31:20.392Z,85.13
2019-05-20T10:32:20.395Z,85.54
2019-05-20T10:33:20.392Z,85.54
2019-05-20T10:34:20.386Z,85.74
2019-05-20T10:35:20.359Z,85.54
2019-05-20T10:36:20.357Z,84.99
2019-05-20T10:37:20.336Z,84.69
2019-05-20T10:38:20.315Z,85.50
2019-05-20T10:39:20.299Z,84.19
2019-05-20T10:40:20.325Z,83.58
2019-05-20T10:41:20.290Z,84.08
2019-05-20T10:42:20.314Z,82.56
2019-05-20T10:43:20.267Z,83.07
2019-05-20T10:44:20.250Z,83.84
2019-05-20T10:45:20.234Z,83.64
2019-05-20T10:46:20.239Z,83.03
2019-05-20T10:47:20.235Z,83.44
2019-05-20T10:48:20.235Z,83.54
2019-05-20T10:49:20.190Z,83.94
2019-05-20T10:50:20.182Z,83.44
2019-05-20T10:51:20.182Z,83.33
2019-05-20T10:52:20.165Z,82.32
2019-05-20T10:53:20.187Z,82.53
2019-05-20T10:54:20.136Z,82.22
2019-05-20T10:55:20.137Z,82.53
2019-05-20T10:56:20.120Z,83.44
2019-05-20T10:57:20.127Z,83.13
2019-05-20T10:58:20.123Z,82.42
2019-05-20T10:59:20.113Z,82.83
2019-05-20T11:00:20.068Z,83.33
2019-05-20T11:01:20.053Z,83.23
2019-05-20T11:02:20.048Z,82.93
2019-05-20T11:03:20.059Z,82.42
2019-05-20T11:04:20.077Z,83.13
2019-05-20T11:05:20.017Z,82.53
2019-05-20T11:06:20.004Z,81.62
2019-05-20T11:07:19.990Z,82.62
2019-05-20T11:08:19.969Z,82.83
2019-05-20T11:09:20.001Z,83.54
2019-05-20T11:10:19.971Z,83.03
2019-05-20T11:11:19.939Z,83.33
2019-05-20T11:12:19.993Z,83.64
2019-05-20T11:13:19.912Z,83.09
2019-05-20T11:14:21.183Z,81.68
2019-05-20T11:15:19.911Z,81.27
2019-05-20T11:16:19.906Z,81.78
2019-05-20T11:17:19.880Z,82.99
2019-05-20T11:18:19.864Z,81.78
2019-05-20T11:19:19.854Z,81.68
2019-05-20T11:20:20.303Z,81.48
2019-05-20T11:21:19.844Z,81.98
2019-05-20T11:22:19.841Z,83.29
2019-05-20T11:23:19.847Z,83.50
2019-05-20T11:24:19.791Z,81.37
2019-05-20T11:25:19.791Z,82.08
2019-05-20T11:26:19.788Z,83.05
2019-05-20T11:27:19.783Z,83.36
2019-05-20T11:28:19.749Z,81.64
2019-05-20T11:29:19.743Z,81.68
2019-05-20T11:30:19.750Z,82.59
2019-05-20T11:31:19.744Z,83.15
2019-05-20T11:32:19.725Z,82.49
2019-05-20T11:33:19.707Z,82.04
2019-05-20T11:34:19.735Z,82.49
2019-05-20T11:35:19.669Z,83.26
2019-05-20T11:36:19.669Z,81.34
2019-05-20T11:37:19.658Z,82.14
2019-05-20T11:38:19.644Z,82.18
2019-05-20T11:39:32.729Z,81.13
2019-05-20T11:40:19.654Z,81.03
2019-05-20T11:41:19.626Z,80.12
2019-05-20T11:42:19.594Z,80.22
2019-05-20T11:43:19.591Z,80.63
2019-05-20T11:44:19.580Z,80.32
2019-05-20T11:45:19.579Z,79.72
2019-05-20T11:46:19.580Z,80.83
2019-05-20T11:47:19.535Z,80.12
2019-05-20T11:48:19.523Z,79.52
2019-05-20T11:49:19.519Z,79.82
2019-05-20T11:50:19.519Z,79.82
2019-05-20T11:51:19.530Z,80.53
2019-05-20T11:52:19.485Z,80.49
2019-05-20T11:53:19.487Z,80.19
2019-05-20T11:54:19.456Z,80.59
2019-05-20T11:55:19.455Z,79.68
2019-05-20T11:56:19.455Z,79.68
2019-05-20T11:57:19.458Z,80.02
2019-05-20T11:58:20.269Z,80.19
2019-05-20T11:59:19.453Z,82.21
2019-05-20T12:00:19.392Z,81.70
2019-05-20T12:01:19.407Z,82.04
2019-05-20T12:02:19.421Z,81.84
2019-05-20T12:03:19.360Z,81.64
2019-05-20T12:04:19.349Z,82.28
2019-05-20T12:05:19.359Z,82.39
2019-05-20T12:06:19.326Z,82.08
2019-05-20T12:07:19.341Z,82.99
2019-05-20T12:08:19.324Z,83.13
2019-05-20T12:09:19.289Z,83.54
2019-05-20T12:10:19.296Z,83.74
2019-05-20T12:11:19.264Z,83.64
2019-05-20T12:12:19.271Z,84.85
2019-05-20T12:13:19.266Z,85.19
2019-05-20T12:14:19.254Z,86.77
2019-05-20T12:15:19.232Z,88.59
2019-05-20T12:16:19.215Z,88.13
2019-05-20T12:17:19.197Z,88.27
2019-05-20T12:18:19.210Z,84.97
2019-05-20T12:19:19.193Z,87.24
2019-05-20T12:20:19.204Z,87.22
2019-05-20T12:21:19.152Z,86.15
2019-05-20T12:22:19.149Z,87.99
2019-05-20T12:23:19.226Z,89.30
2019-05-20T12:24:19.224Z,88.98
2019-05-20T12:25:19.792Z,90.64
2019-05-20T12:26:22.606Z,92.93
2019-05-20T12:27:19.125Z,94.09
2019-05-20T12:28:19.089Z,95.52
2019-05-20T12:29:19.085Z,94.95
2019-05-20T12:30:19.103Z,95.87
2019-05-20T12:31:19.088Z,96.33
2019-05-20T12:32:19.023Z,96.43
2019-05-20T12:33:19.828Z,96.12
2019-05-20T12:34:19.804Z,96.63
2019-05-20T12:35:20.025Z,97.45
2019-05-20T12:36:19.005Z,96.84
2019-05-20T12:37:19.006Z,97.96
2019-05-20T12:38:19.029Z,97.75
2019-05-20T12:39:18.990Z,97.75
2019-05-20T12:40:18.953Z,98.22
2019-05-20T12:41:18.942Z,98.83
2019-05-20T12:42:18.921Z,98.73
2019-05-20T12:43:18.955Z,98.52
2019-05-20T12:44:18.937Z,99.14
2019-05-20T12:45:18.885Z,98.83
2019-05-20T12:46:18.872Z,98.32
2019-05-20T12:47:18.882Z,98.52
2019-05-20T12:48:18.871Z,98.52
2019-05-20T12:49:18.962Z,98.73
2019-05-20T12:50:18.826Z,99.34
2019-05-20T12:51:18.809Z,98.73
2019-05-20T12:52:18.815Z,98.63